Thurmont, MD

1:30 PM EST on December 19, 2014 (GMT -0500)
Gateway | Change Station
CLOSE
Current Station
Personal Weather Station
Location: Thurmont, MD
Elevation: 440 ft
Nearby Weather Stations

Elev 440 ft 39.61 °N, 77.40 °W | Updated 9 seconds ago

Overcast
Overcast
21.7 °F
Feels Like 17 °F
N
3.6
Wind Variable Wind from North
Gusts 4.0 mph

Today
High -- | Low -- °F
--% Chance of Precip.
Yesterday
High -- | Low -- °F
Precip. -- in
7:25 AM 4:48 PM
Waning Crescent, 7% visible
Pressure 30.12 in
Visibility 10.0 miles
Clouds Mostly Cloudy 3000 ft
Windchill 17 °F
Dew Point -9 °F
Humidity 25%
Rainfall 0.00 in
Snow Depth Not available.
UV 1 out of 12
Pollen .10 out of 12
Air Quality Not available.
Flu Activity Not available.
METAR KRYT 191753Z AUTO VRB06KT 10SM BKN030 02/M06 A3008 RMK AO2 SLP200 T00221056 10028 20000 58007 $

More Conditions Fewer Conditions

Pressure 30.12 in
Visibility 10.0 miles
Clouds Mostly Cloudy 3000 ft
Windchill 17 °F
Dew Point -9 °F
Humidity 25%
Rainfall 0.00 in
Snow Depth Not available.
UV 1 out of 12
Pollen .10 out of 12
Air Quality Not available.
Flu Activity Not available.
METAR KRYT 191753Z AUTO VRB06KT 10SM BKN030 02/M06 A3008 RMK AO2 SLP200 T00221056 10028 20000 58007 $

More Conditions Fewer Conditions

10-Day Weather Forecast

Almanac

Astronomy

Dec. 19, 2014 Rise Set
Actual Time
Civil Twilight
Nautical Twilight
Astronomical Twilight
Moon
Length of Visible Light
Length of Day
Tomorrow will be .
, % of the Moon is Illuminated

Today's Extremes

State Highs State Lows

Community

WunderPhotos

Upload Photos

1,779,020 photos uploaded!

WunderBlogs® & News

Nearby

Air Quality

  Air Quality AQ Index Pollutant
Not available.

Snow Depth

Station Depth Elevation

Earthquake Activity

City Distance Mag. Time & Date
Minimum magnitude displayed is 2.5.

Coastal Water Temperatures

Place Temperature

Nearby Weather Stations